sensor_id;sensor_type;location;lat;lon;timestamp;pressure;altitude;pressure_sealevel;temperature;humidity
5879;BME280;2965;42.640;23.370;2023-07-20T04:01:33;94226.84;;;20.23;nan
5879;BME280;2965;42.640;23.370;2023-07-20T04:04:05;94231.13;;;20.29;nan
5879;BME280;2965;42.640;23.370;2023-07-20T04:06:31;94233.31;;;20.32;nan
5879;BME280;2965;42.640;23.370;2023-07-20T04:08:56;94233.84;;;20.34;nan
5879;BME280;2965;42.640;23.370;2023-07-20T04:11:21;94226.44;;;20.36;nan
5879;BME280;2965;42.640;23.370;2023-07-20T04:13:47;94218.00;;;20.45;nan
5879;BME280;2965;42.640;23.370;2023-07-20T04:16:12;94211.19;;;20.54;nan
5879;BME280;2965;42.640;23.370;2023-07-20T04:18:37;94215.03;;;20.63;nan
5879;BME280;2965;42.640;23.370;2023-07-20T04:21:03;94206.56;;;20.71;nan
5879;BME280;2965;42.640;23.370;2023-07-20T04:23:28;94203.75;;;20.83;nan
5879;BME280;2965;42.640;23.370;2023-07-20T04:25:54;94204.63;;;20.94;nan
5879;BME280;2965;42.640;23.370;2023-07-20T04:28:19;94208.16;;;21.04;nan
5879;BME280;2965;42.640;23.370;2023-07-20T04:30:44;94197.06;;;21.12;nan
5879;BME280;2965;42.640;23.370;2023-07-20T04:33:10;94199.81;;;21.28;nan
5879;BME280;2965;42.640;23.370;2023-07-20T04:35:54;94208.63;;;21.33;nan
5879;BME280;2965;42.640;23.370;2023-07-20T04:38:20;94203.59;;;21.37;nan
5879;BME280;2965;42.640;23.370;2023-07-20T04:40:50;94206.66;;;21.19;nan
5879;BME280;2965;42.640;23.370;2023-07-20T04:43:16;94196.19;;;21.07;nan
5879;BME280;2965;42.640;23.370;2023-07-20T04:45:42;94189.09;;;21.12;nan
5879;BME280;2965;42.640;23.370;2023-07-20T04:48:13;94185.69;;;21.22;nan
5879;BME280;2965;42.640;23.370;2023-07-20T04:50:40;94202.78;;;21.31;nan
5879;BME280;2965;42.640;23.370;2023-07-20T04:53:05;94192.75;;;21.44;nan
5879;BME280;2965;42.640;23.370;2023-07-20T04:55:31;94195.47;;;21.54;nan
5879;BME280;2965;42.640;23.370;2023-07-20T04:57:59;94196.56;;;21.63;nan
5879;BME280;2965;42.640;23.370;2023-07-20T05:00:25;94199.81;;;21.70;nan
5879;BME280;2965;42.640;23.370;2023-07-20T05:02:50;94189.19;;;21.80;nan
5879;BME280;2965;42.640;23.370;2023-07-20T05:05:16;94191.84;;;21.80;nan
5879;BME280;2965;42.640;23.370;2023-07-20T05:07:41;94186.00;;;21.83;nan
5879;BME280;2965;42.640;23.370;2023-07-20T05:10:07;94187.63;;;21.89;nan
5879;BME280;2965;42.640;23.370;2023-07-20T05:12:33;94188.19;;;22.02;nan
5879;BME280;2965;42.640;23.370;2023-07-20T05:14:58;94196.00;;;22.13;nan
5879;BME280;2965;42.640;23.370;2023-07-20T05:17:23;94196.00;;;22.13;nan
5879;BME280;2965;42.640;23.370;2023-07-20T05:19:49;94193.59;;;22.22;nan
5879;BME280;2965;42.640;23.370;2023-07-20T05:22:16;94194.16;;;22.29;nan
5879;BME280;2965;42.640;23.370;2023-07-20T05:24:41;94194.16;;;22.39;nan
5879;BME280;2965;42.640;23.370;2023-07-20T05:27:07;94193.38;;;22.44;nan
5879;BME280;2965;42.640;23.370;2023-07-20T05:29:32;94194.19;;;22.55;nan
5879;BME280;2965;42.640;23.370;2023-07-20T05:31:58;94192.59;;;22.64;nan
5879;BME280;2965;42.640;23.370;2023-07-20T05:34:23;94205.38;;;22.52;nan
5879;BME280;2965;42.640;23.370;2023-07-20T05:36:49;94209.91;;;22.56;nan
5879;BME280;2965;42.640;23.370;2023-07-20T05:39:16;94207.00;;;22.58;nan
5879;BME280;2965;42.640;23.370;2023-07-20T05:41:42;94207.78;;;22.58;nan
5879;BME280;2965;42.640;23.370;2023-07-20T05:44:08;94213.91;;;22.59;nan
5879;BME280;2965;42.640;23.370;2023-07-20T05:46:33;94207.50;;;22.75;nan
5879;BME280;2965;42.640;23.370;2023-07-20T05:48:58;94208.59;;;22.69;nan
5879;BME280;2965;42.640;23.370;2023-07-20T05:51:24;94216.31;;;22.65;nan
5879;BME280;2965;42.640;23.370;2023-07-20T05:53:49;94219.00;;;22.76;nan
5879;BME280;2965;42.640;23.370;2023-07-20T05:56:14;94221.91;;;22.69;nan
5879;BME280;2965;42.640;23.370;2023-07-20T05:58:40;94218.19;;;22.65;nan
5879;BME280;2965;42.640;23.370;2023-07-20T06:01:05;94226.44;;;22.74;nan
5879;BME280;2965;42.640;23.370;2023-07-20T06:03:33;94212.88;;;22.85;nan
5879;BME280;2965;42.640;23.370;2023-07-20T06:06:02;94222.47;;;22.97;nan
5879;BME280;2965;42.640;23.370;2023-07-20T06:08:29;94216.88;;;23.08;nan
5879;BME280;2965;42.640;23.370;2023-07-20T06:10:54;94223.56;;;23.16;nan
5879;BME280;2965;42.640;23.370;2023-07-20T06:13:21;94222.22;;;23.29;nan
5879;BME280;2965;42.640;23.370;2023-07-20T06:15:46;94212.88;;;23.26;nan
5879;BME280;2965;42.640;23.370;2023-07-20T06:18:13;94213.09;;;23.40;nan
5879;BME280;2965;42.640;23.370;2023-07-20T06:20:39;94207.47;;;23.52;nan
5879;BME280;2965;42.640;23.370;2023-07-20T06:23:04;94204.28;;;23.65;nan
5879;BME280;2965;42.640;23.370;2023-07-20T06:25:30;94199.97;;;23.74;nan
5879;BME280;2965;42.640;23.370;2023-07-20T06:27:56;94198.84;;;23.85;nan
5879;BME280;2965;42.640;23.370;2023-07-20T06:30:21;94180.69;;;23.87;nan
5879;BME280;2965;42.640;23.370;2023-07-20T06:32:47;94182.19;;;24.09;nan
5879;BME280;2965;42.640;23.370;2023-07-20T06:35:13;94191.72;;;24.25;nan
5879;BME280;2965;42.640;23.370;2023-07-20T06:37:39;94184.34;;;24.02;nan
5879;BME280;2965;42.640;23.370;2023-07-20T06:40:05;94197.19;;;23.95;nan
5879;BME280;2965;42.640;23.370;2023-07-20T06:42:30;94189.66;;;24.07;nan
5879;BME280;2965;42.640;23.370;2023-07-20T06:44:57;94196.00;;;24.21;nan
5879;BME280;2965;42.640;23.370;2023-07-20T06:47:22;94186.31;;;24.35;nan
5879;BME280;2965;42.640;23.370;2023-07-20T06:49:47;94199.09;;;24.44;nan
5879;BME280;2965;42.640;23.370;2023-07-20T06:52:13;94197.00;;;24.35;nan
5879;BME280;2965;42.640;23.370;2023-07-20T06:54:38;94189.00;;;24.30;nan
5879;BME280;2965;42.640;23.370;2023-07-20T06:57:04;94190.88;;;24.40;nan
5879;BME280;2965;42.640;23.370;2023-07-20T06:59:30;94193.13;;;24.57;nan
5879;BME280;2965;42.640;23.370;2023-07-20T07:01:55;94212.88;;;24.66;nan
5879;BME280;2965;42.640;23.370;2023-07-20T07:04:21;94219.19;;;24.80;nan
5879;BME280;2965;42.640;23.370;2023-07-20T07:06:46;94222.88;;;24.89;nan
5879;BME280;2965;42.640;23.370;2023-07-20T07:09:12;94221.75;;;24.96;nan
5879;BME280;2965;42.640;23.370;2023-07-20T07:11:38;94220.56;;;25.12;nan
5879;BME280;2965;42.640;23.370;2023-07-20T07:14:03;94223.75;;;25.14;nan
5879;BME280;2965;42.640;23.370;2023-07-20T07:16:29;94239.25;;;25.17;nan
5879;BME280;2965;42.640;23.370;2023-07-20T07:18:54;94236.47;;;25.32;nan
5879;BME280;2965;42.640;23.370;2023-07-20T07:21:20;94243.41;;;25.33;nan
5879;BME280;2965;42.640;23.370;2023-07-20T07:23:45;94254.41;;;25.27;nan
5879;BME280;2965;42.640;23.370;2023-07-20T07:26:11;94257.88;;;25.32;nan
5879;BME280;2965;42.640;23.370;2023-07-20T07:28:37;94259.41;;;25.38;nan
5879;BME280;2965;42.640;23.370;2023-07-20T07:31:06;94265.84;;;25.37;nan
5879;BME280;2965;42.640;23.370;2023-07-20T07:33:32;94260.16;;;25.44;nan
5879;BME280;2965;42.640;23.370;2023-07-20T07:35:57;94263.13;;;25.42;nan
5879;BME280;2965;42.640;23.370;2023-07-20T07:38:23;94259.44;;;25.62;nan
5879;BME280;2965;42.640;23.370;2023-07-20T07:40:48;94258.03;;;25.70;nan
5879;BME280;2965;42.640;23.370;2023-07-20T07:43:13;94253.63;;;25.84;nan
5879;BME280;2965;42.640;23.370;2023-07-20T07:45:40;94252.69;;;25.94;nan
5879;BME280;2965;42.640;23.370;2023-07-20T07:48:06;94252.16;;;25.97;nan
5879;BME280;2965;42.640;23.370;2023-07-20T07:50:32;94252.31;;;26.06;nan
5879;BME280;2965;42.640;23.370;2023-07-20T07:52:57;94245.41;;;26.24;nan
5879;BME280;2965;42.640;23.370;2023-07-20T07:55:24;94224.03;;;26.19;nan
5879;BME280;2965;42.640;23.370;2023-07-20T07:57:49;94199.13;;;26.37;nan
5879;BME280;2965;42.640;23.370;2023-07-20T08:00:15;94208.84;;;26.52;nan
5879;BME280;2965;42.640;23.370;2023-07-20T08:02:44;94227.13;;;26.50;nan
5879;BME280;2965;42.640;23.370;2023-07-20T08:05:11;94207.78;;;26.53;nan
5879;BME280;2965;42.640;23.370;2023-07-20T08:07:37;94205.38;;;26.70;nan
5879;BME280;2965;42.640;23.370;2023-07-20T08:10:03;94219.88;;;26.69;nan
5879;BME280;2965;42.640;23.370;2023-07-20T08:12:29;94237.63;;;26.65;nan
5879;BME280;2965;42.640;23.370;2023-07-20T08:14:54;94238.72;;;26.64;nan
5879;BME280;2965;42.640;23.370;2023-07-20T08:17:19;94260.78;;;26.61;nan
5879;BME280;2965;42.640;23.370;2023-07-20T08:19:46;94266.56;;;26.68;nan
5879;BME280;2965;42.640;23.370;2023-07-20T08:22:11;94259.59;;;26.67;nan
5879;BME280;2965;42.640;23.370;2023-07-20T08:24:41;94262.34;;;26.62;nan
5879;BME280;2965;42.640;23.370;2023-07-20T08:27:07;94260.53;;;26.57;nan
5879;BME280;2965;42.640;23.370;2023-07-20T08:29:34;94271.50;;;26.37;nan
5879;BME280;2965;42.640;23.370;2023-07-20T08:31:59;94258.72;;;26.53;nan
5879;BME280;2965;42.640;23.370;2023-07-20T08:34:24;94250.25;;;26.46;nan
5879;BME280;2965;42.640;23.370;2023-07-20T08:36:50;94267.19;;;26.17;nan
5879;BME280;2965;42.640;23.370;2023-07-20T08:39:15;94261.38;;;26.10;nan
5879;BME280;2965;42.640;23.370;2023-07-20T08:41:42;94266.47;;;25.87;nan
5879;BME280;2965;42.640;23.370;2023-07-20T08:44:08;94253.06;;;25.87;nan
5879;BME280;2965;42.640;23.370;2023-07-20T08:46:34;94257.84;;;25.90;nan
5879;BME280;2965;42.640;23.370;2023-07-20T08:49:00;94259.91;;;25.99;nan
5879;BME280;2965;42.640;23.370;2023-07-20T08:51:28;94258.75;;;26.05;nan
5879;BME280;2965;42.640;23.370;2023-07-20T08:53:54;94260.97;;;25.98;nan
5879;BME280;2965;42.640;23.370;2023-07-20T08:56:19;94252.31;;;26.06;nan
5879;BME280;2965;42.640;23.370;2023-07-20T08:58:46;94246.25;;;26.19;nan
5879;BME280;2965;42.640;23.370;2023-07-20T09:01:12;94250.47;;;26.25;nan
5879;BME280;2965;42.640;23.370;2023-07-20T09:03:38;94242.72;;;26.42;nan
5879;BME280;2965;42.640;23.370;2023-07-20T09:06:05;94249.38;;;26.50;nan
5879;BME280;2965;42.640;23.370;2023-07-20T09:08:31;94237.56;;;26.51;nan
5879;BME280;2965;42.640;23.370;2023-07-20T09:10:56;94228.78;;;26.64;nan
5879;BME280;2965;42.640;23.370;2023-07-20T09:13:22;94228.59;;;26.61;nan
5879;BME280;2965;42.640;23.370;2023-07-20T09:15:53;94230.66;;;26.64;nan
5879;BME280;2965;42.640;23.370;2023-07-20T09:18:29;94233.22;;;26.74;nan
5879;BME280;2965;42.640;23.370;2023-07-20T09:20:59;94228.72;;;26.88;nan
5879;BME280;2965;42.640;23.370;2023-07-20T09:23:30;94228.09;;;26.91;nan
5879;BME280;2965;42.640;23.370;2023-07-20T09:25:57;94216.03;;;27.08;nan
5879;BME280;2965;42.640;23.370;2023-07-20T09:28:23;94221.56;;;27.16;nan
5879;BME280;2965;42.640;23.370;2023-07-20T09:30:48;94215.31;;;27.21;nan
5879;BME280;2965;42.640;23.370;2023-07-20T09:33:23;94221.66;;;27.11;nan
5879;BME280;2965;42.640;23.370;2023-07-20T09:35:48;94220.41;;;27.04;nan
5879;BME280;2965;42.640;23.370;2023-07-20T09:38:14;94219.44;;;27.32;nan
5879;BME280;2965;42.640;23.370;2023-07-20T09:40:40;94214.59;;;27.62;nan
5879;BME280;2965;42.640;23.370;2023-07-20T09:43:10;94216.03;;;27.73;nan
5879;BME280;2965;42.640;23.370;2023-07-20T09:45:40;94213.63;;;27.72;nan
5879;BME280;2965;42.640;23.370;2023-07-20T09:48:07;94220.13;;;27.98;nan
5879;BME280;2965;42.640;23.370;2023-07-20T09:50:34;94204.50;;;27.86;nan
5879;BME280;2965;42.640;23.370;2023-07-20T09:53:00;94211.47;;;28.01;nan
5879;BME280;2965;42.640;23.370;2023-07-20T09:55:28;94193.09;;;28.31;nan
5879;BME280;2965;42.640;23.370;2023-07-20T09:57:54;94195.81;;;28.67;nan
5879;BME280;2965;42.640;23.370;2023-07-20T10:00:21;94191.81;;;28.78;nan
5879;BME280;2965;42.640;23.370;2023-07-20T10:02:46;94178.84;;;28.80;nan
5879;BME280;2965;42.640;23.370;2023-07-20T10:05:15;94178.34;;;28.56;nan
5879;BME280;2965;42.640;23.370;2023-07-20T10:07:47;94179.59;;;28.22;nan
5879;BME280;2965;42.640;23.370;2023-07-20T10:10:17;94179.09;;;28.06;nan
5879;BME280;2965;42.640;23.370;2023-07-20T10:12:44;94179.00;;;27.98;nan
5879;BME280;2965;42.640;23.370;2023-07-20T10:15:13;94177.03;;;27.89;nan
5879;BME280;2965;42.640;23.370;2023-07-20T10:17:49;94177.53;;;27.91;nan
5879;BME280;2965;42.640;23.370;2023-07-20T10:20:19;94178.91;;;27.89;nan
5879;BME280;2965;42.640;23.370;2023-07-20T10:22:47;94182.41;;;28.03;nan
5879;BME280;2965;42.640;23.370;2023-07-20T10:25:13;94182.97;;;28.14;nan
5879;BME280;2965;42.640;23.370;2023-07-20T10:27:39;94189.75;;;28.25;nan
5879;BME280;2965;42.640;23.370;2023-07-20T10:30:05;94198.09;;;28.37;nan
5879;BME280;2965;42.640;23.370;2023-07-20T10:32:31;94187.84;;;28.39;nan
5879;BME280;2965;42.640;23.370;2023-07-20T10:34:57;94185.75;;;28.36;nan
5879;BME280;2965;42.640;23.370;2023-07-20T10:40:25;94181.31;;;28.54;nan
5879;BME280;2965;42.640;23.370;2023-07-20T10:42:56;94183.75;;;28.78;nan
5879;BME280;2965;42.640;23.370;2023-07-20T10:48:17;94177.59;;;28.86;nan
5879;BME280;2965;42.640;23.370;2023-07-20T10:50:45;94154.63;;;28.80;nan
5879;BME280;2965;42.640;23.370;2023-07-20T10:53:15;94110.97;;;29.06;nan
5879;BME280;2965;42.640;23.370;2023-07-20T10:55:41;94117.50;;;29.13;nan
5879;BME280;2965;42.640;23.370;2023-07-20T10:58:14;94137.88;;;29.06;nan
5879;BME280;2965;42.640;23.370;2023-07-20T11:01:17;94146.69;;;28.98;nan
5879;BME280;2965;42.640;23.370;2023-07-20T11:03:48;94138.72;;;29.15;nan
5879;BME280;2965;42.640;23.370;2023-07-20T11:09:11;94111.84;;;29.24;nan
5879;BME280;2965;42.640;23.370;2023-07-20T11:11:38;94105.09;;;29.44;nan
5879;BME280;2965;42.640;23.370;2023-07-20T11:14:06;94101.44;;;29.79;nan
5879;BME280;2965;42.640;23.370;2023-07-20T11:19:02;94111.38;;;30.45;nan
5879;BME280;2965;42.640;23.370;2023-07-20T11:21:29;94113.59;;;30.60;nan
5879;BME280;2965;42.640;23.370;2023-07-20T11:23:55;94108.22;;;30.77;nan
5879;BME280;2965;42.640;23.370;2023-07-20T11:26:21;94102.88;;;31.15;nan
5879;BME280;2965;42.640;23.370;2023-07-20T11:28:50;94103.66;;;31.33;nan
5879;BME280;2965;42.640;23.370;2023-07-20T11:31:20;94102.41;;;31.60;nan
5879;BME280;2965;42.640;23.370;2023-07-20T11:33:46;94094.63;;;31.97;nan
5879;BME280;2965;42.640;23.370;2023-07-20T11:36:12;94094.03;;;32.42;nan
5879;BME280;2965;42.640;23.370;2023-07-20T11:38:40;94089.13;;;32.56;nan
5879;BME280;2965;42.640;23.370;2023-07-20T11:41:07;94088.84;;;32.70;nan
5879;BME280;2965;42.640;23.370;2023-07-20T11:43:32;94080.34;;;32.93;nan
5879;BME280;2965;42.640;23.370;2023-07-20T11:45:58;94082.84;;;32.98;nan
5879;BME280;2965;42.640;23.370;2023-07-20T11:48:23;94082.34;;;32.83;nan
5879;BME280;2965;42.640;23.370;2023-07-20T11:50:48;94074.28;;;32.96;nan
5879;BME280;2965;42.640;23.370;2023-07-20T11:53:14;94069.66;;;32.75;nan
5879;BME280;2965;42.640;23.370;2023-07-20T11:55:41;94063.03;;;33.18;nan
5879;BME280;2965;42.640;23.370;2023-07-20T11:58:08;94063.06;;;33.30;nan
5879;BME280;2965;42.640;23.370;2023-07-20T12:00:35;94064.38;;;33.00;nan
5879;BME280;2965;42.640;23.370;2023-07-20T12:03:05;94058.31;;;33.27;nan
5879;BME280;2965;42.640;23.370;2023-07-20T12:05:32;94057.66;;;33.55;nan
5879;BME280;2965;42.640;23.370;2023-07-20T12:07:57;94061.06;;;33.64;nan
5879;BME280;2965;42.640;23.370;2023-07-20T12:10:27;94054.28;;;33.58;nan
5879;BME280;2965;42.640;23.370;2023-07-20T12:12:54;94057.66;;;33.43;nan
5879;BME280;2965;42.640;23.370;2023-07-20T12:17:46;94047.06;;;33.50;nan
5879;BME280;2965;42.640;23.370;2023-07-20T12:20:28;94048.28;;;33.40;nan
5879;BME280;2965;42.640;23.370;2023-07-20T12:22:56;94056.66;;;33.72;nan
5879;BME280;2965;42.640;23.370;2023-07-20T12:25:22;94036.06;;;34.07;nan
5879;BME280;2965;42.640;23.370;2023-07-20T12:27:48;94055.81;;;34.20;nan
5879;BME280;2965;42.640;23.370;2023-07-20T12:30:14;94037.31;;;34.50;nan
5879;BME280;2965;42.640;23.370;2023-07-20T12:32:40;94036.97;;;34.39;nan
5879;BME280;2965;42.640;23.370;2023-07-20T12:35:05;94035.13;;;34.56;nan
5879;BME280;2965;42.640;23.370;2023-07-20T12:37:31;94033.34;;;34.48;nan
5879;BME280;2965;42.640;23.370;2023-07-20T12:39:56;94040.25;;;34.73;nan
5879;BME280;2965;42.640;23.370;2023-07-20T12:42:22;94033.81;;;34.50;nan
5879;BME280;2965;42.640;23.370;2023-07-20T12:44:49;94034.50;;;34.91;nan
5879;BME280;2965;42.640;23.370;2023-07-20T12:47:16;94041.25;;;34.81;nan
5879;BME280;2965;42.640;23.370;2023-07-20T12:49:42;94027.47;;;34.46;nan
5879;BME280;2965;42.640;23.370;2023-07-20T12:52:10;94029.66;;;34.84;nan
5879;BME280;2965;42.640;23.370;2023-07-20T12:54:36;94031.16;;;34.81;nan
5879;BME280;2965;42.640;23.370;2023-07-20T12:57:01;94032.78;;;34.70;nan
5879;BME280;2965;42.640;23.370;2023-07-20T12:59:28;94030.19;;;34.46;nan
5879;BME280;2965;42.640;23.370;2023-07-20T13:01:53;94032.03;;;34.29;nan
5879;BME280;2965;42.640;23.370;2023-07-20T13:04:19;94023.91;;;34.29;nan
5879;BME280;2965;42.640;23.370;2023-07-20T13:06:44;94022.03;;;34.46;nan
5879;BME280;2965;42.640;23.370;2023-07-20T13:09:09;94017.84;;;34.76;nan
5879;BME280;2965;42.640;23.370;2023-07-20T13:11:35;94019.22;;;34.70;nan
5879;BME280;2965;42.640;23.370;2023-07-20T13:14:00;94014.19;;;34.56;nan
5879;BME280;2965;42.640;23.370;2023-07-20T13:16:26;94022.94;;;34.50;nan
5879;BME280;2965;42.640;23.370;2023-07-20T13:18:51;94019.00;;;34.47;nan
5879;BME280;2965;42.640;23.370;2023-07-20T13:21:16;94013.84;;;35.02;nan
5879;BME280;2965;42.640;23.370;2023-07-20T13:23:42;94023.00;;;35.25;nan
5879;BME280;2965;42.640;23.370;2023-07-20T13:26:08;94008.59;;;35.41;nan
5879;BME280;2965;42.640;23.370;2023-07-20T13:28:33;94020.34;;;35.45;nan
5879;BME280;2965;42.640;23.370;2023-07-20T13:30:59;94011.59;;;35.04;nan
5879;BME280;2965;42.640;23.370;2023-07-20T13:33:24;94006.09;;;34.72;nan
5879;BME280;2965;42.640;23.370;2023-07-20T13:35:49;94023.88;;;34.98;nan
5879;BME280;2965;42.640;23.370;2023-07-20T13:38:15;94009.81;;;34.96;nan
5879;BME280;2965;42.640;23.370;2023-07-20T13:40:41;94012.78;;;34.91;nan
5879;BME280;2965;42.640;23.370;2023-07-20T13:43:07;94007.72;;;35.05;nan
5879;BME280;2965;42.640;23.370;2023-07-20T13:45:32;94002.47;;;35.12;nan
5879;BME280;2965;42.640;23.370;2023-07-20T13:47:58;93996.69;;;35.29;nan
5879;BME280;2965;42.640;23.370;2023-07-20T13:50:23;93997.09;;;35.63;nan
5879;BME280;2965;42.640;23.370;2023-07-20T13:52:49;93994.38;;;35.63;nan
5879;BME280;2965;42.640;23.370;2023-07-20T13:55:14;94004.72;;;35.73;nan
5879;BME280;2965;42.640;23.370;2023-07-20T13:57:39;94001.41;;;35.64;nan
5879;BME280;2965;42.640;23.370;2023-07-20T14:00:05;93997.28;;;35.54;nan
5879;BME280;2965;42.640;23.370;2023-07-20T14:02:33;94000.16;;;35.46;nan
5879;BME280;2965;42.640;23.370;2023-07-20T14:04:58;94003.09;;;35.21;nan
5879;BME280;2965;42.640;23.370;2023-07-20T14:07:24;94001.91;;;34.91;nan
5879;BME280;2965;42.640;23.370;2023-07-20T14:09:50;93993.50;;;34.96;nan
5879;BME280;2965;42.640;23.370;2023-07-20T14:12:15;94006.84;;;35.01;nan
5879;BME280;2965;42.640;23.370;2023-07-20T14:14:40;94005.47;;;34.79;nan
5879;BME280;2965;42.640;23.370;2023-07-20T14:17:06;94005.41;;;34.19;nan
5879;BME280;2965;42.640;23.370;2023-07-20T14:19:32;94005.69;;;34.30;nan
5879;BME280;2965;42.640;23.370;2023-07-20T14:21:57;94003.81;;;34.18;nan
5879;BME280;2965;42.640;23.370;2023-07-20T14:24:25;94002.88;;;34.26;nan
5879;BME280;2965;42.640;23.370;2023-07-20T14:26:50;94004.22;;;34.32;nan
5879;BME280;2965;42.640;23.370;2023-07-20T14:29:15;93996.06;;;34.32;nan
5879;BME280;2965;42.640;23.370;2023-07-20T14:31:43;93999.53;;;34.73;nan
5879;BME280;2965;42.640;23.370;2023-07-20T14:34:09;94001.34;;;34.69;nan
5879;BME280;2965;42.640;23.370;2023-07-20T14:36:34;94008.75;;;34.84;nan
5879;BME280;2965;42.640;23.370;2023-07-20T14:38:59;94015.19;;;34.64;nan
5879;BME280;2965;42.640;23.370;2023-07-20T14:41:25;94007.03;;;34.64;nan
5879;BME280;2965;42.640;23.370;2023-07-20T14:43:51;94003.03;;;34.46;nan
5879;BME280;2965;42.640;23.370;2023-07-20T14:46:16;94001.81;;;34.87;nan
5879;BME280;2965;42.640;23.370;2023-07-20T14:48:42;94005.78;;;34.89;nan
5879;BME280;2965;42.640;23.370;2023-07-20T14:51:07;94010.19;;;34.66;nan
5879;BME280;2965;42.640;23.370;2023-07-20T14:53:33;94006.28;;;34.23;nan
5879;BME280;2965;42.640;23.370;2023-07-20T14:56:02;94008.94;;;34.35;nan
5879;BME280;2965;42.640;23.370;2023-07-20T14:58:27;94011.53;;;34.72;nan
5879;BME280;2965;42.640;23.370;2023-07-20T15:00:53;94019.09;;;34.95;nan
5879;BME280;2965;42.640;23.370;2023-07-20T15:03:18;94023.44;;;34.83;nan
5879;BME280;2965;42.640;23.370;2023-07-20T15:05:43;94010.66;;;34.68;nan
5879;BME280;2965;42.640;23.370;2023-07-20T15:08:09;94017.38;;;34.58;nan
5879;BME280;2965;42.640;23.370;2023-07-20T15:10:34;94015.47;;;34.75;nan
5879;BME280;2965;42.640;23.370;2023-07-20T15:13:00;94015.91;;;34.49;nan
5879;BME280;2965;42.640;23.370;2023-07-20T15:15:26;94018.06;;;34.55;nan
5879;BME280;2965;42.640;23.370;2023-07-20T15:17:51;94017.38;;;34.18;nan
5879;BME280;2965;42.640;23.370;2023-07-20T15:20:17;94018.22;;;34.06;nan
5879;BME280;2965;42.640;23.370;2023-07-20T15:22:42;94016.03;;;34.12;nan
5879;BME280;2965;42.640;23.370;2023-07-20T15:25:09;94015.25;;;34.11;nan
5879;BME280;2965;42.640;23.370;2023-07-20T15:27:37;94026.22;;;34.03;nan
5879;BME280;2965;42.640;23.370;2023-07-20T15:30:02;94020.25;;;33.97;nan
5879;BME280;2965;42.640;23.370;2023-07-20T15:32:28;94033.25;;;33.92;nan
5879;BME280;2965;42.640;23.370;2023-07-20T15:34:53;94028.13;;;34.14;nan
5879;BME280;2965;42.640;23.370;2023-07-20T15:37:18;94029.72;;;34.03;nan
5879;BME280;2965;42.640;23.370;2023-07-20T15:39:48;94033.94;;;33.88;nan
5879;BME280;2965;42.640;23.370;2023-07-20T15:42:13;94039.59;;;33.47;nan
5879;BME280;2965;42.640;23.370;2023-07-20T15:44:38;94037.22;;;33.45;nan
5879;BME280;2965;42.640;23.370;2023-07-20T15:47:04;94031.47;;;33.59;nan
5879;BME280;2965;42.640;23.370;2023-07-20T15:49:31;94038.94;;;33.74;nan
5879;BME280;2965;42.640;23.370;2023-07-20T15:51:57;94028.94;;;34.03;nan
5879;BME280;2965;42.640;23.370;2023-07-20T15:54:22;94045.44;;;33.85;nan
5879;BME280;2965;42.640;23.370;2023-07-20T15:56:48;94040.03;;;33.36;nan
5879;BME280;2965;42.640;23.370;2023-07-20T15:59:16;94049.50;;;33.18;nan
5879;BME280;2965;42.640;23.370;2023-07-20T16:01:42;94061.69;;;33.24;nan
5879;BME280;2965;42.640;23.370;2023-07-20T16:04:09;94054.00;;;33.14;nan
5879;BME280;2965;42.640;23.370;2023-07-20T16:06:35;94060.44;;;32.76;nan
5879;BME280;2965;42.640;23.370;2023-07-20T16:09:02;94053.16;;;32.56;nan
5879;BME280;2965;42.640;23.370;2023-07-20T16:11:29;94070.31;;;32.60;nan
5879;BME280;2965;42.640;23.370;2023-07-20T16:13:55;94061.13;;;32.52;nan
5879;BME280;2965;42.640;23.370;2023-07-20T16:16:20;94064.94;;;32.30;nan
5879;BME280;2965;42.640;23.370;2023-07-20T16:18:45;94072.03;;;32.44;nan
5879;BME280;2965;42.640;23.370;2023-07-20T16:21:11;94076.34;;;31.94;nan
5879;BME280;2965;42.640;23.370;2023-07-20T16:23:37;94064.16;;;31.88;nan
5879;BME280;2965;42.640;23.370;2023-07-20T16:26:02;94072.22;;;31.97;nan
5879;BME280;2965;42.640;23.370;2023-07-20T16:28:27;94078.34;;;31.76;nan
5879;BME280;2965;42.640;23.370;2023-07-20T16:30:53;94083.88;;;31.80;nan
5879;BME280;2965;42.640;23.370;2023-07-20T16:33:18;94083.66;;;31.64;nan
5879;BME280;2965;42.640;23.370;2023-07-20T16:38:13;94087.13;;;31.64;nan
5879;BME280;2965;42.640;23.370;2023-07-20T16:40:39;94092.34;;;31.40;nan
5879;BME280;2965;42.640;23.370;2023-07-20T16:43:04;94091.84;;;31.47;nan
5879;BME280;2965;42.640;23.370;2023-07-20T16:45:33;94094.09;;;31.45;nan
5879;BME280;2965;42.640;23.370;2023-07-20T16:47:59;94099.75;;;31.52;nan
5879;BME280;2965;42.640;23.370;2023-07-20T16:50:24;94106.31;;;31.42;nan
5879;BME280;2965;42.640;23.370;2023-07-20T16:52:50;94099.66;;;31.39;nan
5879;BME280;2965;42.640;23.370;2023-07-20T16:55:16;94100.44;;;31.49;nan
5879;BME280;2965;42.640;23.370;2023-07-20T16:57:42;94099.53;;;31.27;nan
5879;BME280;2965;42.640;23.370;2023-07-20T17:00:08;94102.44;;;31.05;nan
5879;BME280;2965;42.640;23.370;2023-07-20T17:02:39;94099.06;;;31.16;nan
5879;BME280;2965;42.640;23.370;2023-07-20T17:05:05;94105.19;;;30.70;nan
5879;BME280;2965;42.640;23.370;2023-07-20T17:07:39;94108.69;;;30.62;nan
5879;BME280;2965;42.640;23.370;2023-07-20T17:10:08;94109.16;;;30.64;nan
5879;BME280;2965;42.640;23.370;2023-07-20T17:12:38;94110.25;;;30.37;nan
5879;BME280;2965;42.640;23.370;2023-07-20T17:15:04;94113.59;;;30.25;nan
5879;BME280;2965;42.640;23.370;2023-07-20T17:17:30;94112.31;;;30.14;nan
5879;BME280;2965;42.640;23.370;2023-07-20T17:19:55;94119.69;;;29.91;nan
5879;BME280;2965;42.640;23.370;2023-07-20T17:22:20;94122.41;;;29.91;nan
5879;BME280;2965;42.640;23.370;2023-07-20T17:24:46;94119.88;;;29.55;nan
5879;BME280;2965;42.640;23.370;2023-07-20T17:27:11;94126.31;;;29.36;nan
5879;BME280;2965;42.640;23.370;2023-07-20T17:29:37;94128.78;;;29.24;nan
5879;BME280;2965;42.640;23.370;2023-07-20T17:32:03;94123.59;;;29.28;nan
5879;BME280;2965;42.640;23.370;2023-07-20T17:37:00;94133.22;;;28.75;nan
5879;BME280;2965;42.640;23.370;2023-07-20T17:39:25;94130.16;;;28.90;nan
5879;BME280;2965;42.640;23.370;2023-07-20T17:41:51;94122.47;;;28.75;nan
5879;BME280;2965;42.640;23.370;2023-07-20T17:44:17;94136.63;;;28.45;nan
5879;BME280;2965;42.640;23.370;2023-07-20T17:46:42;94130.94;;;28.32;nan